MSC Jordan — HPMK — position and weather

sailwx.info

Track history (hours):
 
Tides and Currents Weather Stations Pressure Air Temp Water Temp Dewpoint Dewpoint Depression Visibility Wind Speed Wind Dir Waves Ship Positions

MSC Jordan

Last reported at 2015-Jan-19 00:33 UTC. Time now 2015-Jan-26 16:31 UTC.
Position N 05°42' E 002°05'.

Length 237 m; draft 10.6 m.

Type: Ship. MMSI: 355194000.

Date/timePositionNaut miles runAvg speedWind from/ knotsBaromVisibWave heightAir tempDewpointWater temp
2015-Jan-19 00:33N 05°42' E 002°05'1716.9
2015-Jan-18 23:33N 05°48' E 002°21'1716.8
2015-Jan-18 22:33N 05°54' E 002°36'1717.0
2015-Jan-18 21:33N 05°60' E 002°52'1716.8
2015-Jan-18 20:32N 06°06' E 003°08'1616.4
2015-Jan-18 19:33N 06°16' E 003°21'10 9.0
2015-Jan-18 18:25N 06°26' E 003°24'3 3.7
2015-Jan-18 17:33N 06°26' E 003°20'0 0.5
2015-Jan-18 16:31N 06°26' E 003°21'0 0.0
2015-Jan-18 15:31N 06°26' E 003°21'0 0.0
2015-Jan-18 14:31N 06°26' E 003°21'0 0.0
2015-Jan-18 13:31N 06°26' E 003°21'0 0.0
2015-Jan-18 12:31N 06°26' E 003°21'0 0.0
2015-Jan-18 11:31N 06°26' E 003°21'0 0.0
2015-Jan-18 10:31N 06°26' E 003°21'0 0.0
2015-Jan-18 09:31N 06°26' E 003°21'0 0.0
2015-Jan-18 08:28N 06°26' E 003°21'0 0.0
2015-Jan-18 07:31N 06°26' E 003°21'0 0.0
2015-Jan-18 06:31N 06°26' E 003°21'0 0.0
2015-Jan-18 05:31N 06°26' E 003°21'0 0.0
2015-Jan-18 04:31N 06°26' E 003°21'0 0.0
2015-Jan-18 03:28N 06°26' E 003°21'0 0.0
2015-Jan-18 02:22N 06°26' E 003°21'0 0.0
2015-Jan-18 01:33N 06°26' E 003°21'0 0.0
2015-Jan-18 00:31N 06°26' E 003°21'0 0.0
2015-Jan-17 23:25N 06°26' E 003°21'0 0.0
2015-Jan-17 22:28N 06°26' E 003°21'0 0.0
2015-Jan-17 21:31N 06°26' E 003°21'0 0.0
2015-Jan-17 20:29N 06°26' E 003°21'0 0.0
2015-Jan-17 19:34N 06°26' E 003°21'0 0.0
2015-Jan-17 18:31N 06°26' E 003°21'0 0.0
2015-Jan-17 17:33N 06°26' E 003°21'0 0.0
2015-Jan-17 16:33N 06°26' E 003°21'0 0.0
2015-Jan-17 15:33N 06°26' E 003°21'0 0.0
2015-Jan-17 14:33N 06°26' E 003°21'0 0.0
2015-Jan-17 13:30N 06°26' E 003°21'0 0.0
2015-Jan-17 12:33N 06°26' E 003°21'0 0.0
2015-Jan-17 11:33N 06°26' E 003°21'0 0.0
2015-Jan-17 10:27N 06°26' E 003°21'0 0.0
2015-Jan-17 09:33N 06°26' E 003°21'0 0.0
2015-Jan-17 08:33N 06°26' E 003°21'0 0.3
2015-Jan-17 07:33N 06°26' E 003°21'4 3.9
2015-Jan-17 06:33N 06°23' E 003°24'6 6.3
2015-Jan-17 05:33N 06°17' E 003°25'1616.3
2015-Jan-17 04:33N 06°01' E 003°25'1514.7
2015-Jan-17 03:33N 05°48' E 003°17'1716.9
2015-Jan-17 02:33N 05°43' E 003°01'1717.0
2015-Jan-17 01:33N 05°38' E 002°45'1717.1
2015-Jan-17 00:33N 05°32' E 002°29'4216.8
2015-Jan-16 22:03N 05°18' E 001°49'917.6
2015-Jan-16 21:33N 05°16' E 001°41'1716.6
2015-Jan-16 20:33N 05°10' E 001°25'1716.8
2015-Jan-16 19:33N 05°04' E 001°09'1717.0
2015-Jan-16 18:33N 04°59' E 000°53'1816.8
2015-Jan-16 17:27N 04°53' E 000°35'1616.8
2015-Jan-16 16:31N 04°48' E 000°20'1716.5
2015-Jan-16 15:31N 04°42' E 000°05'  
2015-Jan-14 07:22N 08°05' W 014°37'1616.7
2015-Jan-14 06:26N 08°15' W 014°49'1816.8
2015-Jan-14 05:22N 08°26' W 015°04'1416.8
2015-Jan-14 04:33N 08°35' W 015°14'1717.0
2015-Jan-14 03:33N 08°45' W 015°28'1717.1
2015-Jan-14 02:33N 08°56' W 015°41'1717.0
2015-Jan-14 01:33N 09°07' W 015°54'1717.0
2015-Jan-14 00:33N 09°18' W 016°08'1717.0
2015-Jan-13 23:33N 09°29' W 016°21'1817.2
2015-Jan-13 22:32N 09°40' W 016°35'3316.6
2015-Jan-13 20:33N 10°07' W 016°54'1817.1
2015-Jan-13 19:30N 10°23' W 017°03'1616.6
2015-Jan-13 18:33N 10°36' W 017°10'3316.6
2015-Jan-13 16:33N 11°07' W 017°23'1716.8
2015-Jan-13 15:33N 11°23' W 017°29'1716.7
2015-Jan-13 14:31N 11°40' W 017°33'1616.8
2015-Jan-13 13:33N 11°56' W 017°36'3816.8
2015-Jan-13 11:19N 12°33' W 017°42'1317.1
2015-Jan-13 10:33N 12°46' W 017°44'  
Track history (hours):
 
Tides and Currents Weather Stations Pressure Air Temp Water Temp Dewpoint Dewpoint Depression Visibility Wind Speed Wind Dir Waves Ship Positions

MSC Jordan

Last reported at 2015-Jan-19 00:33 UTC. Time now 2015-Jan-26 16:31 UTC.
Position N 05°42' E 002°05'.

Length 237 m; draft 10.6 m.

Type: Ship. MMSI: 355194000.

Date/timePositionNaut miles runAvg speedWind from/ knotsBaromVisibWave heightAir tempDewpointWater temp
2015-Jan-19 00:33N 05°42' E 002°05'1716.9
2015-Jan-18 23:33N 05°48' E 002°21'1716.8
2015-Jan-18 22:33N 05°54' E 002°36'1717.0
2015-Jan-18 21:33N 05°60' E 002°52'1716.8
2015-Jan-18 20:32N 06°06' E 003°08'1616.4
2015-Jan-18 19:33N 06°16' E 003°21'10 9.0
2015-Jan-18 18:25N 06°26' E 003°24'3 3.7
2015-Jan-18 17:33N 06°26' E 003°20'0 0.5
2015-Jan-18 16:31N 06°26' E 003°21'0 0.0
2015-Jan-18 15:31N 06°26' E 003°21'0 0.0
2015-Jan-18 14:31N 06°26' E 003°21'0 0.0
2015-Jan-18 13:31N 06°26' E 003°21'0 0.0
2015-Jan-18 12:31N 06°26' E 003°21'0 0.0
2015-Jan-18 11:31N 06°26' E 003°21'0 0.0
2015-Jan-18 10:31N 06°26' E 003°21'0 0.0
2015-Jan-18 09:31N 06°26' E 003°21'0 0.0
2015-Jan-18 08:28N 06°26' E 003°21'0 0.0
2015-Jan-18 07:31N 06°26' E 003°21'0 0.0
2015-Jan-18 06:31N 06°26' E 003°21'0 0.0
2015-Jan-18 05:31N 06°26' E 003°21'0 0.0
2015-Jan-18 04:31N 06°26' E 003°21'0 0.0
2015-Jan-18 03:28N 06°26' E 003°21'0 0.0
2015-Jan-18 02:22N 06°26' E 003°21'0 0.0
2015-Jan-18 01:33N 06°26' E 003°21'0 0.0
2015-Jan-18 00:31N 06°26' E 003°21'0 0.0
2015-Jan-17 23:25N 06°26' E 003°21'0 0.0
2015-Jan-17 22:28N 06°26' E 003°21'0 0.0
2015-Jan-17 21:31N 06°26' E 003°21'0 0.0
2015-Jan-17 20:29N 06°26' E 003°21'0 0.0
2015-Jan-17 19:34N 06°26' E 003°21'0 0.0
2015-Jan-17 18:31N 06°26' E 003°21'0 0.0
2015-Jan-17 17:33N 06°26' E 003°21'0 0.0
2015-Jan-17 16:33N 06°26' E 003°21'0 0.0
2015-Jan-17 15:33N 06°26' E 003°21'0 0.0
2015-Jan-17 14:33N 06°26' E 003°21'0 0.0
2015-Jan-17 13:30N 06°26' E 003°21'0 0.0
2015-Jan-17 12:33N 06°26' E 003°21'0 0.0
2015-Jan-17 11:33N 06°26' E 003°21'0 0.0
2015-Jan-17 10:27N 06°26' E 003°21'0 0.0
2015-Jan-17 09:33N 06°26' E 003°21'0 0.0
2015-Jan-17 08:33N 06°26' E 003°21'0 0.3
2015-Jan-17 07:33N 06°26' E 003°21'4 3.9
2015-Jan-17 06:33N 06°23' E 003°24'6 6.3
2015-Jan-17 05:33N 06°17' E 003°25'1616.3
2015-Jan-17 04:33N 06°01' E 003°25'1514.7
2015-Jan-17 03:33N 05°48' E 003°17'1716.9
2015-Jan-17 02:33N 05°43' E 003°01'1717.0
2015-Jan-17 01:33N 05°38' E 002°45'1717.1
2015-Jan-17 00:33N 05°32' E 002°29'4216.8
2015-Jan-16 22:03N 05°18' E 001°49'917.6
2015-Jan-16 21:33N 05°16' E 001°41'1716.6
2015-Jan-16 20:33N 05°10' E 001°25'1716.8
2015-Jan-16 19:33N 05°04' E 001°09'1717.0
2015-Jan-16 18:33N 04°59' E 000°53'1816.8
2015-Jan-16 17:27N 04°53' E 000°35'1616.8
2015-Jan-16 16:31N 04°48' E 000°20'1716.5
2015-Jan-16 15:31N 04°42' E 000°05'  
2015-Jan-14 07:22N 08°05' W 014°37'1616.7
2015-Jan-14 06:26N 08°15' W 014°49'1816.8
2015-Jan-14 05:22N 08°26' W 015°04'1416.8
2015-Jan-14 04:33N 08°35' W 015°14'1717.0
2015-Jan-14 03:33N 08°45' W 015°28'1717.1
2015-Jan-14 02:33N 08°56' W 015°41'1717.0
2015-Jan-14 01:33N 09°07' W 015°54'1717.0
2015-Jan-14 00:33N 09°18' W 016°08'1717.0
2015-Jan-13 23:33N 09°29' W 016°21'1817.2
2015-Jan-13 22:32N 09°40' W 016°35'3316.6
2015-Jan-13 20:33N 10°07' W 016°54'1817.1
2015-Jan-13 19:30N 10°23' W 017°03'1616.6
2015-Jan-13 18:33N 10°36' W 017°10'3316.6
2015-Jan-13 16:33N 11°07' W 017°23'1716.8
2015-Jan-13 15:33N 11°23' W 017°29'1716.7
2015-Jan-13 14:31N 11°40' W 017°33'1616.8
2015-Jan-13 13:33N 11°56' W 017°36'3816.8
2015-Jan-13 11:19N 12°33' W 017°42'1317.1
2015-Jan-13 10:33N 12°46' W 017°44'  

Dump ship's entire track history